createdAt,value
2019-02-07T00:02:56.281Z,0.29
2019-02-07T00:08:00.984Z,0.31
2019-02-07T00:13:05.626Z,0.32
2019-02-07T00:18:09.983Z,0.28
2019-02-07T00:23:14.321Z,0.39
2019-02-07T00:28:18.591Z,0.54
2019-02-07T00:33:23.801Z,0.63
2019-02-07T00:38:30.108Z,0.63
2019-02-07T00:43:34.362Z,0.62
2019-02-07T00:48:38.620Z,0.73
2019-02-07T00:53:43.201Z,0.71
2019-02-07T00:58:47.436Z,0.86
2019-02-07T01:03:51.784Z,0.85
2019-02-07T01:08:56.122Z,0.89
2019-02-07T01:14:01.118Z,0.84
2019-02-07T01:19:05.479Z,0.94
2019-02-07T01:24:09.743Z,0.99
2019-02-07T01:29:13.999Z,1.02
2019-02-07T01:34:18.352Z,0.88
2019-02-07T01:39:23.130Z,0.85
2019-02-07T01:44:27.372Z,0.96
2019-02-07T01:49:31.707Z,0.90
2019-02-07T01:54:36.308Z,0.96
2019-02-07T01:59:40.594Z,1.01
2019-02-07T02:04:44.931Z,1.00
2019-02-07T02:09:49.290Z,1.00
2019-02-07T02:14:53.542Z,0.96
2019-02-07T02:19:57.882Z,0.84
2019-02-07T02:25:02.423Z,0.93
2019-02-07T02:30:09.782Z,0.91
2019-02-07T02:35:14.234Z,0.85
2019-02-07T02:40:19.011Z,0.96
2019-02-07T02:45:35.429Z,0.96
2019-02-07T02:50:29.702Z,0.94
2019-02-07T02:55:35.975Z,1.02
2019-02-07T03:01:03.628Z,0.83
2019-02-07T03:06:26.898Z,0.98
2019-02-07T03:11:48.988Z,1.05
2019-02-07T03:17:10.847Z,0.98
2019-02-07T03:22:34.037Z,1.02
2019-02-07T03:27:53.269Z,0.97
2019-02-07T03:33:15.185Z,1.04
2019-02-07T03:38:41.813Z,1.09
2019-02-07T03:44:04.974Z,1.18
2019-02-07T03:49:16.361Z,1.16
2019-02-07T03:54:45.894Z,1.20
2019-02-07T04:00:09.088Z,1.22
2019-02-07T04:05:32.757Z,1.20
2019-02-07T04:11:11.122Z,1.31
2019-02-07T04:16:34.072Z,1.30
2019-02-07T04:21:53.028Z,1.35
2019-02-07T04:27:17.690Z,1.32
2019-02-07T04:32:44.000Z,1.36
2019-02-07T04:37:59.287Z,1.35
2019-02-07T04:43:21.386Z,1.31
2019-02-07T04:48:43.235Z,1.41
2019-02-07T04:54:00.524Z,1.47
2019-02-07T04:59:15.527Z,1.44
2019-02-07T05:04:35.827Z,1.37
2019-02-07T05:10:08.548Z,1.37
2019-02-07T05:15:47.715Z,1.38
2019-02-07T05:21:06.440Z,1.39
2019-02-07T05:26:38.314Z,1.41
2019-02-07T05:32:10.384Z,1.49
2019-02-07T05:37:42.653Z,1.48
2019-02-07T05:42:56.805Z,1.41
2019-02-07T05:48:27.183Z,1.42
2019-02-07T05:53:50.423Z,1.38
2019-02-07T05:59:12.450Z,1.39
2019-02-07T06:04:54.945Z,1.19
2019-02-07T06:10:18.342Z,1.47
2019-02-07T06:15:41.847Z,1.53
2019-02-07T06:21:11.442Z,1.50
2019-02-07T06:26:33.496Z,1.60
2019-02-07T06:31:55.403Z,1.54
2019-02-07T06:37:15.153Z,1.53
2019-02-07T06:42:29.932Z,1.62
2019-02-07T06:48:05.493Z,1.59
2019-02-07T06:53:28.686Z,1.58
2019-02-07T06:58:51.049Z,1.70
2019-02-07T07:04:14.331Z,1.58
2019-02-07T07:09:42.398Z,1.62
2019-02-07T07:15:02.701Z,1.68
2019-02-07T07:20:27.690Z,1.74
2019-02-07T07:25:50.072Z,1.79
2019-02-07T07:31:16.244Z,1.84
2019-02-07T07:36:33.878Z,1.85
2019-02-07T07:42:10.232Z,1.79
2019-02-07T07:47:35.736Z,1.78
2019-02-07T07:52:42.771Z,1.80
2019-02-07T07:57:57.074Z,1.78
2019-02-07T08:03:19.278Z,1.78
2019-02-07T08:08:36.754Z,1.83
2019-02-07T08:14:02.725Z,1.65
2019-02-07T08:19:23.495Z,1.83
2019-02-07T08:24:46.786Z,1.86
2019-02-07T08:30:09.986Z,1.91
2019-02-07T08:35:32.940Z,1.75
2019-02-07T08:41:02.526Z,1.86
2019-02-07T08:46:25.856Z,1.89
2019-02-07T08:51:58.145Z,1.88
2019-02-07T08:57:36.812Z,2.01
2019-02-07T09:02:58.687Z,2.00
2019-02-07T09:08:18.506Z,2.05
2019-02-07T09:13:44.793Z,2.15
2019-02-07T09:19:07.994Z,2.27
2019-02-07T09:24:46.909Z,2.23
2019-02-07T09:30:22.248Z,2.25
2019-02-07T09:36:04.819Z,2.22
2019-02-07T09:41:38.044Z,2.46
2019-02-07T09:47:09.322Z,2.53
2019-02-07T09:52:35.414Z,2.54
2019-02-07T09:57:45.678Z,2.51
2019-02-07T10:02:57.842Z,2.63
2019-02-07T10:08:39.204Z,2.69
2019-02-07T10:14:01.244Z,2.73
2019-02-07T10:19:27.733Z,2.86
2019-02-07T10:24:56.995Z,3.00
2019-02-07T10:30:18.855Z,3.08
2019-02-07T10:35:48.549Z,3.18
2019-02-07T10:41:02.595Z,3.21
2019-02-07T10:46:28.869Z,3.20
2019-02-07T10:52:07.299Z,3.12
2019-02-07T10:57:37.043Z,3.19
2019-02-07T11:03:06.554Z,3.22
2019-02-07T11:08:42.279Z,3.33
2019-02-07T11:13:59.628Z,3.41
2019-02-07T11:19:22.973Z,3.64
2019-02-07T11:24:48.160Z,3.94
2019-02-07T11:30:15.153Z,4.12
2019-02-07T11:35:56.824Z,4.45
2019-02-07T11:41:12.810Z,4.78
2019-02-07T11:46:26.665Z,4.52
2019-02-07T11:51:53.082Z,4.48
2019-02-07T11:57:18.744Z,4.48
2019-02-07T12:02:36.912Z,4.58
2019-02-07T12:08:00.061Z,4.64
2019-02-07T12:13:23.778Z,4.84
2019-02-07T12:19:02.338Z,4.96
2019-02-07T12:24:29.118Z,5.11
2019-02-07T12:29:58.362Z,5.40
2019-02-07T12:35:21.625Z,5.66
2019-02-07T12:40:51.122Z,6.02
2019-02-07T12:46:23.403Z,6.17
2019-02-07T12:51:49.671Z,6.42
2019-02-07T12:57:11.541Z,6.61
2019-02-07T13:02:33.853Z,6.94
2019-02-07T13:07:49.352Z,7.50
2019-02-07T13:13:07.374Z,7.50
2019-02-07T13:18:33.618Z,7.82
2019-02-07T13:24:09.301Z,7.70
2019-02-07T13:29:23.520Z,7.86
2019-02-07T13:34:55.728Z,7.98
2019-02-07T13:40:21.899Z,7.68
2019-02-07T13:45:33.767Z,7.61
2019-02-07T13:50:57.040Z,7.46
2019-02-07T13:56:23.460Z,7.47
2019-02-07T14:01:49.772Z,7.37
2019-02-07T14:07:23.110Z,7.22
2019-02-07T14:12:52.475Z,7.24
2019-02-07T14:18:24.567Z,7.31
2019-02-07T14:23:48.299Z,7.20
2019-02-07T14:29:08.710Z,7.15
2019-02-07T14:34:26.122Z,7.15
2019-02-07T14:39:50.883Z,6.97
2019-02-07T14:45:20.665Z,6.98
2019-02-07T14:50:42.485Z,7.02
2019-02-07T14:55:34.001Z,7.05
2019-02-07T15:00:38.331Z,7.22
2019-02-07T15:05:42.602Z,7.29
2019-02-07T15:10:46.944Z,7.30
2019-02-07T15:15:51.365Z,7.13
2019-02-07T15:20:56.058Z,7.21
2019-02-07T15:26:00.380Z,7.20
2019-02-07T15:31:04.826Z,7.20
2019-02-07T15:36:10.639Z,7.38
2019-02-07T15:41:16.095Z,7.22
2019-02-07T15:46:21.219Z,7.25
2019-02-07T15:51:25.798Z,7.32
2019-02-07T15:56:30.168Z,7.14
2019-02-07T16:01:42.306Z,7.17
2019-02-07T16:06:46.870Z,7.13
2019-02-07T16:11:51.904Z,7.10
2019-02-07T16:16:56.775Z,6.94
2019-02-07T16:22:02.053Z,6.82
2019-02-07T16:27:06.443Z,6.66
2019-02-07T16:32:11.180Z,6.56
2019-02-07T16:37:15.499Z,6.39
2019-02-07T16:42:20.143Z,6.39
2019-02-07T16:47:24.823Z,6.37
2019-02-07T16:52:30.772Z,6.34
2019-02-07T16:57:35.063Z,6.31
2019-02-07T17:02:40.159Z,6.30
2019-02-07T17:07:48.101Z,6.27
2019-02-07T17:12:52.404Z,6.31
2019-02-07T17:17:57.053Z,6.28
2019-02-07T17:23:01.665Z,6.20
2019-02-07T17:28:06.283Z,6.18
2019-02-07T17:33:10.785Z,6.12
2019-02-07T17:38:15.116Z,6.11
2019-02-07T17:43:19.532Z,5.97
2019-02-07T17:48:24.209Z,5.96
2019-02-07T17:53:28.719Z,6.00
2019-02-07T17:58:33.054Z,5.93
2019-02-07T18:03:37.451Z,5.90
2019-02-07T18:08:42.404Z,5.80
2019-02-07T18:13:46.891Z,5.73
2019-02-07T18:18:51.147Z,5.66
2019-02-07T18:23:55.898Z,5.69
2019-02-07T18:29:00.198Z,5.57
2019-02-07T18:34:05.127Z,5.56
2019-02-07T18:39:10.853Z,5.49
2019-02-07T18:44:15.101Z,5.48
2019-02-07T18:49:19.460Z,5.42
2019-02-07T18:54:23.768Z,5.42
2019-02-07T18:59:28.356Z,5.46
2019-02-07T19:04:32.682Z,5.46
2019-02-07T19:09:37.268Z,5.45
2019-02-07T19:14:43.682Z,5.46
2019-02-07T19:19:49.812Z,5.52
2019-02-07T19:24:54.129Z,5.54
2019-02-07T19:29:58.697Z,5.59
2019-02-07T19:35:11.155Z,5.58
2019-02-07T19:40:16.124Z,5.53
2019-02-07T19:45:21.712Z,5.47
2019-02-07T19:50:27.392Z,5.47
2019-02-07T19:55:31.753Z,5.43
2019-02-07T20:00:39.481Z,5.53
2019-02-07T20:05:44.006Z,5.52
2019-02-07T20:10:48.362Z,5.57
2019-02-07T20:15:57.016Z,5.62
2019-02-07T20:21:01.448Z,5.62
2019-02-07T20:26:06.764Z,5.73
2019-02-07T20:31:12.126Z,5.79
2019-02-07T20:36:16.967Z,5.79
2019-02-07T20:41:21.279Z,5.82
2019-02-07T20:46:25.801Z,5.85
2019-02-07T20:51:30.467Z,5.82
2019-02-07T20:56:36.124Z,5.80
2019-02-07T21:01:41.395Z,5.80
2019-02-07T21:06:46.110Z,5.66
2019-02-07T21:11:50.560Z,5.74
2019-02-07T21:16:55.106Z,5.83
2019-02-07T21:21:59.488Z,5.81
2019-02-07T21:27:03.788Z,5.79
2019-02-07T21:32:08.887Z,5.66
2019-02-07T21:37:13.270Z,5.48
2019-02-07T21:42:18.214Z,5.40
2019-02-07T21:47:23.657Z,5.30
2019-02-07T21:52:28.394Z,5.22
2019-02-07T21:57:32.660Z,5.06
2019-02-07T22:02:37.013Z,4.95
2019-02-07T22:07:41.755Z,4.91
2019-02-07T22:12:46.043Z,4.92
2019-02-07T22:17:50.671Z,4.98
2019-02-07T22:22:55.206Z,5.02
2019-02-07T22:27:59.459Z,5.10
2019-02-07T22:33:14.316Z,5.17
2019-02-07T22:38:21.601Z,5.20
2019-02-07T22:43:26.308Z,5.12
2019-02-07T22:48:30.831Z,5.03
2019-02-07T22:53:35.117Z,5.10
2019-02-07T22:58:39.775Z,5.01
2019-02-07T23:03:46.699Z,4.95
2019-02-07T23:08:51.252Z,5.00
2019-02-07T23:13:55.607Z,4.96
2019-02-07T23:18:59.907Z,4.83
2019-02-07T23:24:04.658Z,4.75
2019-02-07T23:29:09.096Z,4.69
2019-02-07T23:34:13.553Z,4.76
2019-02-07T23:39:17.793Z,4.70
2019-02-07T23:44:22.995Z,4.76
2019-02-07T23:49:27.611Z,4.78
2019-02-07T23:54:32.746Z,4.73
2019-02-07T23:59:37.050Z,4.87
